Decoded Metar for KW13 ( in ) (IATA:) | Meteo·Mobile Aviation Weather
aviador You're here:

KW13 Decoded Metar

in
Report Time2020-02-22 21:15:00
UTC Time2020-02-22 21:33:01
Flight Rules vfr VFR
Wind200° at 08 kt
Visibility9999 m
Phenomena:N/A
Clouds:N/A
Expected CloudBase > 10,400 ft AGL from Temp-Dew spread
CeilingNone
Temp11°C
Dew Point-15°C (15% RH)
AAT4.8°C
QNH1024 hPa
Raw Report
METAR KW13 222115Z AUTO 20008KT 10SM CLR 11/M15 A3025 RMK AO1 T01101153=

Extra information for KW13:More info

Social comments